Time;durP1;ratioP1;P1;durP2;ratioP2;P2;SDS_P1;SDS_P2;PMS_P1;PMS_P2;Temp;Humidity;BMP_temperature;BMP_pressure;BME280_temperature;BME280_humidity;BME280_pressure;Samples;Min_cycle;Max_cycle;Signal;HPM_P1;HPM_P2
2021/12/28 09:41:53;;;;;;;9.23;8.33;;;;;;;8.47;100.00;99027.09;5312057;27;20363;-79
2021/12/28 09:44:25;;;;;;;10.77;9.68;;;;;;;8.55;100.00;99025.66;5310455;28;20730;-79
2021/12/28 09:46:57;;;;;;;9.77;8.77;;;;;;;8.57;100.00;99013.34;5310762;28;20114;-77
2021/12/28 09:49:29;;;;;;;9.50;8.60;;;;;;;8.60;100.00;99015.69;5311191;28;20024;-76
2021/12/28 09:52:04;;;;;;;12.63;8.13;;;;;;;8.68;100.00;99028.94;5310708;28;20030;-77
2021/12/28 09:54:36;;;;;;;10.23;8.77;;;;;;;8.71;100.00;99020.88;5310618;28;20542;-78
2021/12/28 09:57:07;;;;;;;8.00;7.00;;;;;;;8.73;100.00;99006.88;5310473;28;20051;-79
2021/12/28 09:59:38;;;;;;;7.37;6.67;;;;;;;8.78;100.00;99015.97;5311205;28;20389;-78
2021/12/28 10:02:10;;;;;;;6.87;6.20;;;;;;;8.82;100.00;99003.50;5310572;28;20508;-78
2021/12/28 10:05:07;;;;;;;6.37;5.77;;;;;;;8.90;100.00;99005.50;5311165;28;20658;-78
2021/12/28 10:07:56;;;;;;;8.20;5.80;;;;;;;8.94;100.00;99007.72;5309843;28;20173;-73
2021/12/28 10:10:32;;;;;;;7.00;5.30;;;;;;;8.97;100.00;98995.34;5310048;28;20081;-78
2021/12/28 10:13:09;;;;;;;6.90;5.83;;;;;;;8.95;100.00;98993.69;5309866;28;20050;-77
2021/12/28 10:15:42;;;;;;;6.00;5.03;;;;;;;8.98;100.00;98991.78;5309052;28;20036;-77
2021/12/28 10:18:13;;;;;;;8.07;4.70;;;;;;;9.01;100.00;98988.91;5310665;28;20047;-74
2021/12/28 10:20:54;;;;;;;7.40;5.00;;;;;;;9.06;100.00;98989.34;5310639;28;20032;-77
2021/12/28 10:23:29;;;;;;;5.07;3.77;;;;;;;9.10;100.00;98977.72;5309733;28;20040;-77
2021/12/28 10:26:05;;;;;;;5.57;4.33;;;;;;;9.15;100.00;98964.25;5310809;28;20031;-77
2021/12/28 10:28:38;;;;;;;4.63;3.87;;;;;;;9.14;100.00;98967.84;5310937;28;20115;-77
2021/12/28 10:31:18;;;;;;;5.37;3.63;;;;;;;9.25;100.00;98964.31;5310791;28;20024;-77
2021/12/28 10:33:55;;;;;;;5.50;3.23;;;;;;;9.31;100.00;98953.34;5310297;28;20028;-77
2021/12/28 10:36:34;;;;;;;5.90;2.87;;;;;;;9.31;100.00;98948.13;5307980;28;20035;-77
2021/12/28 10:39:08;;;;;;;6.37;3.00;;;;;;;9.32;100.00;98931.47;5310980;28;20436;-77
2021/12/28 10:41:42;;;;;;;3.65;2.40;;;;;;;9.43;100.00;98941.84;5309952;28;20501;-78
2021/12/28 10:44:13;;;;;;;3.35;2.15;;;;;;;9.46;100.00;98939.94;5309314;28;20099;-74
2021/12/28 10:46:44;;;;;;;4.20;1.80;;;;;;;9.43;100.00;98941.84;5309497;28;20110;-79
2021/12/28 10:49:36;;;;;;;4.73;2.47;;;;;;;9.41;100.00;98933.31;5307999;28;20648;-74
2021/12/28 10:52:37;;;;;;;4.63;1.90;;;;;;;9.39;100.00;98924.78;5298249;28;20062;-78
2021/12/28 10:55:24;;;;;;;5.03;1.87;;;;;;;9.49;100.00;98935.28;5293256;28;20493;-78
2021/12/28 10:57:55;;;;;;;5.70;1.90;;;;;;;9.43;100.00;98931.41;5296030;28;20039;-79
2021/12/28 11:00:41;;;;;;;5.97;2.60;;;;;;;9.43;100.00;98936.63;5292781;28;20032;-75
2021/12/28 11:03:16;;;;;;;6.13;2.27;;;;;;;9.42;100.00;98929.75;5295558;28;20020;-74
2021/12/28 11:05:49;;;;;;;6.20;2.87;;;;;;;9.40;100.00;98923.81;5295625;28;20107;-75
2021/12/28 11:08:23;;;;;;;4.63;2.80;;;;;;;9.47;100.00;98915.44;5281912;28;20479;-76
2021/12/28 11:10:59;;;;;;;3.78;2.70;;;;;;;9.41;100.00;98911.56;5295881;28;20462;-74
2021/12/28 11:13:32;;;;;;;5.73;2.33;;;;;;;9.32;100.00;98898.34;5294258;28;20027;-80
2021/12/28 11:16:07;;;;;;;3.90;2.87;;;;;;;9.38;100.00;98901.38;5295589;28;20012;-80
2021/12/28 11:18:41;;;;;;;4.60;2.63;;;;;;;9.39;100.00;98903.88;5318198;27;20093;-79
2021/12/28 11:21:17;;;;;;;4.90;2.13;;;;;;;9.44;100.00;98900.88;5295681;28;20016;-77
2021/12/28 11:23:51;;;;;;;2.33;1.67;;;;;;;9.48;100.00;98894.41;5294426;28;20240;-80
2021/12/28 11:26:27;;;;;;;3.13;1.92;;;;;;;9.41;100.00;98896.72;5294244;28;20085;-77
2021/12/28 11:29:02;;;;;;;4.97;2.10;;;;;;;9.44;100.00;98891.22;5293769;28;20371;-78
2021/12/28 11:31:40;;;;;;;2.20;1.63;;;;;;;9.41;100.00;98896.72;5294443;28;20077;-77
2021/12/28 11:34:35;;;;;;;2.70;1.97;;;;;;;9.46;100.00;98895.50;5291536;28;20027;-78
2021/12/28 11:37:14;;;;;;;2.33;1.50;;;;;;;9.46;100.00;98892.91;5294780;28;20034;-77
2021/12/28 11:39:52;;;;;;;2.53;0.90;;;;;;;9.65;100.00;98892.13;5294558;28;20128;-78
2021/12/28 11:42:24;;;;;;;1.87;1.00;;;;;;;9.51;100.00;98869.81;5294311;28;20104;-76
2021/12/28 11:44:55;;;;;;;2.63;1.10;;;;;;;9.52;100.00;98874.06;5293449;28;20024;-78
2021/12/28 11:47:27;;;;;;;1.70;0.87;;;;;;;9.47;100.00;98871.03;5294974;28;20084;-78
2021/12/28 11:49:59;;;;;;;3.17;1.03;;;;;;;9.47;100.00;98891.94;5292630;28;20024;-75
2021/12/28 11:52:30;;;;;;;2.93;0.83;;;;;;;9.49;100.00;98893.47;5294225;28;20088;-75
2021/12/28 11:55:03;;;;;;;5.07;1.30;;;;;;;9.50;100.00;98895.09;5294248;28;20024;-78
2021/12/28 11:57:34;;;;;;;5.90;1.80;;;;;;;9.41;100.00;98890.66;5293505;28;20024;-77
2021/12/28 12:00:10;;;;;;;9.73;2.20;;;;;;;9.35;100.00;98907.72;5293889;28;20035;-78
2021/12/28 12:02:52;;;;;;;9.57;2.63;;;;;;;9.34;100.00;98895.59;5292144;28;20060;-77
2021/12/28 12:05:29;;;;;;;9.67;2.73;;;;;;;9.30;100.00;98894.22;5292420;28;20039;-76
2021/12/28 12:08:12;;;;;;;15.07;3.47;;;;;;;9.35;100.00;98902.50;5292535;28;20123;-77
2021/12/28 12:10:49;;;;;;;21.23;4.33;;;;;;;9.28;100.00;98896.13;5293988;28;20529;-76
2021/12/28 12:13:26;;;;;;;16.93;4.13;;;;;;;9.20;100.00;98891.56;5294264;28;20036;-74
2021/12/28 12:16:12;;;;;;;22.50;4.03;;;;;;;9.28;100.00;98896.13;5292704;28;20082;-78
2021/12/28 12:18:47;;;;;;;23.83;5.23;;;;;;;9.17;100.00;98890.06;5290870;28;20032;-77
2021/12/28 12:21:19;;;;;;;25.05;4.88;;;;;;;9.14;100.00;98890.31;5293670;28;20043;-80
2021/12/28 12:23:51;;;;;;;26.67;5.97;;;;;;;9.23;100.00;98898.31;5292571;28;20039;-77
2021/12/28 12:26:32;;;;;;;38.87;6.77;;;;;;;9.08;100.00;98883.00;5293635;28;20024;-77
2021/12/28 12:29:19;;;;;;;28.10;6.37;;;;;;;9.22;100.00;98902.72;5292774;28;20039;-75
2021/12/28 12:31:51;;;;;;;31.13;5.17;;;;;;;9.14;100.00;98889.47;5292321;28;20596;-78
2021/12/28 12:34:29;;;;;;;35.03;6.13;;;;;;;9.07;100.00;98878.75;5293195;28;20433;-75
2021/12/28 12:37:00;;;;;;;26.27;7.03;;;;;;;9.12;100.00;98892.22;5291002;28;20522;-78
2021/12/28 12:39:38;;;;;;;35.30;7.83;;;;;;;9.29;100.00;98895.16;5291866;28;20031;-74
2021/12/28 12:42:11;;;;;;;34.37;8.00;;;;;;;9.21;100.00;98903.69;5298619;28;20054;-78
2021/12/28 12:44:43;;;;;;;35.33;8.67;;;;;;;9.16;100.00;98903.25;5291124;28;20030;-79
2021/12/28 12:47:16;;;;;;;37.77;7.10;;;;;;;9.22;100.00;98896.66;5292121;28;20024;-80
2021/12/28 12:50:05;;;;;;;32.53;7.07;;;;;;;9.32;100.00;98903.56;5292708;28;20032;-80
2021/12/28 12:52:38;;;;;;;38.73;7.33;;;;;;;9.33;98.43;98893.97;5288506;28;20674;-79
2021/12/28 12:55:14;;;;;;;37.57;9.37;;;;;;;9.27;98.15;98907.53;5292934;28;20039;-78
2021/12/28 12:57:46;;;;;;;34.33;7.40;;;;;;;9.22;98.20;98896.66;5292054;28;20394;-78
2021/12/28 13:00:20;;;;;;;32.50;8.57;;;;;;;9.25;97.62;98893.78;5292241;28;20287;-78
2021/12/28 13:03:00;;;;;;;38.95;9.18;;;;;;;9.24;97.96;98899.97;5292474;28;20486;-79
2021/12/28 13:05:41;;;;;;;42.67;8.03;;;;;;;9.38;95.97;98893.56;5292196;28;20555;-75
2021/12/28 13:08:13;;;;;;;41.37;7.80;;;;;;;9.37;93.14;98900.59;5289028;28;20105;-75
2021/12/28 13:10:44;;;;;;;31.63;6.70;;;;;;;9.35;94.54;98891.22;5292602;28;20123;-75
2021/12/28 13:13:15;;;;;;;40.70;8.93;;;;;;;9.25;95.28;98893.78;5292913;28;20054;-75
2021/12/28 13:15:46;;;;;;;33.60;7.93;;;;;;;9.44;92.40;98890.44;5289594;28;20559;-79
2021/12/28 13:18:18;;;;;;;40.80;8.63;;;;;;;9.36;92.47;98891.06;5292395;28;20679;-80
2021/12/28 13:20:49;;;;;;;33.77;7.20;;;;;;;9.43;91.74;98889.59;5293311;28;20064;-77
2021/12/28 13:23:20;;;;;;;42.50;8.50;;;;;;;9.37;92.92;98897.13;5291092;28;20024;-78
2021/12/28 13:25:52;;;;;;;36.57;7.23;;;;;;;9.41;91.17;98899.34;5293620;28;20023;-78
2021/12/28 13:28:24;;;;;;;41.80;10.07;;;;;;;9.36;91.50;98901.53;5291710;28;20388;-77
2021/12/28 13:30:56;;;;;;;30.87;7.60;;;;;;;9.48;89.13;98906.66;5292862;28;20028;-78
2021/12/28 13:33:27;;;;;;;34.07;7.30;;;;;;;9.40;89.57;98921.22;5292548;28;20035;-77
2021/12/28 13:36:01;;;;;;;27.97;6.77;;;;;;;9.43;89.52;98918.31;5292190;28;20024;-79
2021/12/28 13:38:32;;;;;;;25.40;6.03;;;;;;;9.37;89.04;98920.66;5292032;28;20677;-80
2021/12/28 13:41:03;;;;;;;22.43;5.23;;;;;;;9.36;87.98;98919.81;5291266;28;20381;-79
2021/12/28 13:43:35;;;;;;;17.80;4.13;;;;;;;9.27;87.87;98931.03;5285089;28;20043;-79
2021/12/28 13:46:09;;;;;;;20.40;4.27;;;;;;;9.26;86.80;98929.41;5292510;28;20136;-73
2021/12/28 13:48:42;;;;;;;15.23;4.45;;;;;;;9.11;87.79;98921.91;5282925;28;20477;-73
2021/12/28 13:51:22;;;;;;;17.45;5.15;;;;;;;9.11;88.86;98921.91;5287561;28;20024;-73
2021/12/28 13:53:56;;;;;;;16.70;4.87;;;;;;;9.01;89.89;98929.69;5279001;28;20620;-73
2021/12/28 13:56:33;;;;;;;14.85;3.00;;;;;;;9.09;87.58;98918.63;5283853;28;20513;-73
2021/12/28 13:59:09;;;;;;;17.87;3.90;;;;;;;8.99;89.13;98918.53;5288004;28;20024;-77
2021/12/28 14:01:44;;;;;;;10.73;3.10;;;;;;;8.78;91.01;98908.13;5288411;28;20035;-78
2021/12/28 14:04:20;;;;;;;12.30;2.30;;;;;;;8.92;88.03;98920.03;5292067;28;20027;-77
2021/12/28 14:06:55;;;;;;;12.47;3.10;;;;;;;8.90;87.15;98919.34;5292285;28;20024;-77
2021/12/28 14:09:28;;;;;;;10.00;2.40;;;;;;;8.89;87.79;98926.34;5290622;28;20032;-77
2021/12/28 14:12:02;;;;;;;14.63;3.30;;;;;;;8.85;87.86;98927.53;5292603;28;20020;-77
2021/12/28 14:14:35;;;;;;;11.93;3.33;;;;;;;8.79;88.50;98930.66;5291665;28;20036;-77
2021/12/28 14:17:14;;;;;;;16.00;3.97;;;;;;;8.78;89.41;98937.66;5292632;28;20023;-77
2021/12/28 14:19:53;;;;;;;14.57;2.93;;;;;;;8.75;90.92;98937.09;5291065;28;20478;-77
2021/12/28 14:22:25;;;;;;;12.60;2.57;;;;;;;8.64;90.54;98930.97;5295394;28;20028;-77
2021/12/28 14:24:58;;;;;;;17.73;4.30;;;;;;;8.66;91.31;98936.06;5291261;28;20023;-76
2021/12/28 14:27:31;;;;;;;17.63;3.57;;;;;;;8.65;90.35;98937.88;5293797;28;20027;-76
2021/12/28 14:30:11;;;;;;;10.87;2.43;;;;;;;8.70;89.69;98938.31;5295898;28;20035;-77
2021/12/28 14:32:45;;;;;;;11.60;2.93;;;;;;;8.69;89.54;98944.47;5295617;28;20119;-76
2021/12/28 14:35:18;;;;;;;14.70;2.27;;;;;;;8.62;89.20;98948.56;5295030;28;20403;-76
2021/12/28 14:37:50;;;;;;;9.77;1.88;;;;;;;8.58;90.59;98936.72;5295693;28;20028;-78
2021/12/28 14:40:26;;;;;;;9.43;2.17;;;;;;;8.52;91.16;98947.63;5295855;28;20047;-76
2021/12/28 14:43:07;;;;;;;9.43;2.20;;;;;;;8.50;90.68;98923.44;5295825;28;20027;-76
2021/12/28 14:45:38;;;;;;;8.73;1.97;;;;;;;8.41;90.86;98935.47;5295678;28;20080;-76
2021/12/28 14:48:19;;;;;;;5.93;1.50;;;;;;;8.51;90.81;98925.09;5297237;28;20095;-77
2021/12/28 14:50:50;;;;;;;8.53;2.07;;;;;;;8.44;90.05;98933.44;5296875;28;20020;-78
2021/12/28 14:53:22;;;;;;;6.77;1.57;;;;;;;8.37;90.11;98927.06;5296067;28;20555;-77
2021/12/28 14:55:57;;;;;;;9.07;2.60;;;;;;;8.29;90.69;98930.28;5294877;28;20475;-78
2021/12/28 14:58:29;;;;;;;5.13;1.60;;;;;;;8.21;91.63;98935.28;5293634;28;20028;-78
2021/12/28 15:01:01;;;;;;;6.23;1.37;;;;;;;8.20;91.22;98929.22;5293379;28;20032;-77
2021/12/28 15:03:35;;;;;;;7.90;1.37;;;;;;;8.18;91.97;98936.38;5295879;28;20028;-78
2021/12/28 15:06:07;;;;;;;8.30;1.83;;;;;;;8.08;92.22;98935.47;5296120;28;20548;-80
2021/12/28 15:08:38;;;;;;;4.47;1.10;;;;;;;8.13;92.49;98937.69;5294774;28;20289;-81
2021/12/28 15:11:09;;;;;;;3.00;1.17;;;;;;;8.07;94.00;98939.00;5295870;28;20043;-81
2021/12/28 15:13:43;;;;;;;9.87;1.50;;;;;;;8.12;93.77;98944.69;5294517;28;20106;-79
2021/12/28 15:16:15;;;;;;;7.43;1.77;;;;;;;8.04;94.22;98947.06;5294149;28;20039;-81
2021/12/28 15:18:46;;;;;;;6.33;2.50;;;;;;;8.05;94.81;98940.91;5293367;28;20032;-80
2021/12/28 15:21:18;;;;;;;5.17;1.43;;;;;;;7.96;96.26;98943.28;5294849;28;20119;-75
2021/12/28 15:23:49;;;;;;;4.80;1.20;;;;;;;7.95;96.55;98948.63;5294973;28;20139;-78
2021/12/28 15:26:20;;;;;;;6.90;1.50;;;;;;;7.89;96.95;98936.09;5295040;28;20034;-79
2021/12/28 15:28:51;;;;;;;3.33;1.37;;;;;;;7.97;96.99;98947.56;5294806;28;20028;-81
2021/12/28 15:31:23;;;;;;;9.77;2.83;;;;;;;7.91;97.57;98948.03;5294371;28;20032;-81
2021/12/28 15:33:54;;;;;;;4.73;1.67;;;;;;;7.89;98.05;98954.34;5300943;28;20084;-80
2021/12/28 15:36:28;;;;;;;6.40;1.80;;;;;;;7.79;98.94;98943.81;5294367;28;20040;-82
2021/12/28 15:39:02;;;;;;;5.10;1.63;;;;;;;7.86;99.79;98948.41;5295267;28;20056;-81
2021/12/28 15:41:34;;;;;;;4.55;1.60;;;;;;;7.85;99.26;98956.38;5295650;28;20541;-86
2021/12/28 15:44:05;;;;;;;8.17;2.40;;;;;;;7.87;99.48;98964.91;5293021;28;20032;-88
2021/12/28 15:46:38;;;;;;;10.37;2.83;;;;;;;7.83;99.61;98950.44;5296221;28;20024;-88
2021/12/28 15:49:11;;;;;;;11.43;1.53;;;;;;;7.84;100.00;98952.09;5297119;28;20422;-85
2021/12/28 15:51:44;;;;;;;8.03;2.67;;;;;;;7.89;100.00;98960.38;5293354;28;20039;-83
2021/12/28 15:54:17;;;;;;;8.03;1.77;;;;;;;7.82;100.00;98962.63;5294681;28;20035;-81
2021/12/28 15:56:48;;;;;;;6.97;1.87;;;;;;;7.82;100.00;98954.00;5293373;28;20032;-78
2021/12/28 15:59:20;;;;;;;6.50;1.50;;;;;;;7.74;100.00;98952.81;5292804;28;20027;-78
2021/12/28 16:01:51;;;;;;;5.23;2.30;;;;;;;7.68;100.00;98966.31;5294132;28;20032;-84
2021/12/28 16:04:23;;;;;;;4.50;1.77;;;;;;;7.80;100.00;98974.13;5294325;28;20036;-81
2021/12/28 16:06:55;;;;;;;9.80;2.97;;;;;;;7.78;100.00;98960.41;5294122;28;20044;-81
2021/12/28 16:09:26;;;;;;;7.67;2.20;;;;;;;7.86;100.00;98973.66;5292485;28;20478;-80
2021/12/28 16:11:58;;;;;;;6.13;2.03;;;;;;;7.84;100.00;98986.81;5294004;28;20042;-74
2021/12/28 16:14:30;;;;;;;10.23;2.00;;;;;;;7.80;100.00;98989.78;5291905;28;20028;-74
2021/12/28 16:17:01;;;;;;;10.20;2.43;;;;;;;7.68;100.00;98981.94;5274242;28;20060;-75
2021/12/28 16:19:33;;;;;;;8.93;2.50;;;;;;;7.79;100.00;98990.72;5289382;28;20067;-75
2021/12/28 16:22:11;;;;;;;13.40;3.00;;;;;;;7.72;100.00;98988.59;5292187;28;20028;-74
2021/12/28 16:24:44;;;;;;;11.50;2.67;;;;;;;7.80;100.00;98995.00;5293613;28;20111;-75
2021/12/28 16:27:15;;;;;;;9.33;2.63;;;;;;;7.84;100.00;99002.44;5295617;28;20032;-76
2021/12/28 16:29:46;;;;;;;9.00;3.10;;;;;;;7.82;100.00;99004.34;5288605;28;20032;-72
2021/12/28 16:32:18;;;;;;;11.57;3.77;;;;;;;7.84;100.00;99012.03;5292324;28;20438;-69
2021/12/28 16:34:50;;;;;;;7.53;2.47;;;;;;;7.75;100.00;99014.41;5290110;28;20101;-72
2021/12/28 16:37:22;;;;;;;9.43;3.07;;;;;;;7.85;100.00;99005.88;5301236;28;20390;-75
2021/12/28 16:39:53;;;;;;;9.57;2.83;;;;;;;7.84;100.00;99025.06;5304385;28;20090;-72
2021/12/28 16:42:24;;;;;;;10.23;3.87;;;;;;;7.75;100.00;99018.78;5287865;28;20088;-71
2021/12/28 16:44:55;;;;;;;6.87;2.60;;;;;;;7.82;100.00;99034.81;5293214;28;20316;-68
2021/12/28 16:47:27;;;;;;;13.43;4.27;;;;;;;7.89;100.00;99035.16;5290309;28;20028;-72
2021/12/28 16:49:58;;;;;;;11.27;3.60;;;;;;;7.80;100.00;99031.47;5291742;28;20085;-75
2021/12/28 16:52:29;;;;;;;13.87;4.50;;;;;;;7.83;100.00;99039.06;5290787;28;20028;-76
2021/12/28 16:55:03;;;;;;;8.33;3.33;;;;;;;7.79;100.00;99035.84;5296566;28;20014;-75
2021/12/28 16:57:35;;;;;;;12.53;3.47;;;;;;;7.85;100.00;99040.56;5291370;28;20032;-75
2021/12/28 17:00:11;;;;;;;8.40;3.07;;;;;;;7.82;100.00;99059.06;5288686;28;20056;-78
2021/12/28 17:02:42;;;;;;;11.53;3.80;;;;;;;7.87;100.00;99056.94;5292554;28;20031;-75
2021/12/28 17:05:13;;;;;;;14.10;4.00;;;;;;;7.96;100.00;99062.38;5292091;28;20032;-74
2021/12/28 17:07:45;;;;;;;10.03;2.50;;;;;;;7.90;100.00;99063.69;5289616;28;20107;-78
2021/12/28 17:10:16;;;;;;;7.97;2.50;;;;;;;7.95;100.00;99061.56;5294864;28;20035;-77
2021/12/28 17:12:48;;;;;;;8.70;3.00;;;;;;;7.96;100.00;99068.44;5292320;28;20036;-77
2021/12/28 17:15:20;;;;;;;6.33;2.93;;;;;;;7.96;100.00;99076.25;5293778;28;20095;-75
2021/12/28 17:17:51;;;;;;;6.53;2.13;;;;;;;7.64;100.00;99063.94;5291092;28;20050;-79
2021/12/28 17:20:23;;;;;;;9.57;3.00;;;;;;;7.91;100.00;99077.53;5282465;28;20036;-78
2021/12/28 17:22:54;;;;;;;9.07;3.10;;;;;;;7.90;100.00;99079.34;5292216;28;20092;-76
2021/12/28 17:25:26;;;;;;;6.00;3.00;;;;;;;7.89;100.00;99088.09;5296614;28;20111;-93
2021/12/28 17:27:58;;;;;;;7.50;2.57;;;;;;;7.95;100.00;99090.25;5289521;28;20099;-78
2021/12/28 17:30:30;;;;;;;16.03;3.50;;;;;;;8.01;100.00;99101.13;5287132;28;20036;-74
2021/12/28 17:33:03;;;;;;;12.83;3.23;;;;;;;8.02;100.00;99097.56;5300785;28;20030;-79
2021/12/28 17:35:35;;;;;;;13.80;3.60;;;;;;;7.98;100.00;99092.59;5290853;28;20073;-74
2021/12/28 17:38:06;;;;;;;13.27;4.07;;;;;;;8.04;100.00;99095.69;5289568;28;20494;-74
2021/12/28 17:40:39;;;;;;;12.90;4.60;;;;;;;8.05;100.00;99103.38;5287592;28;20123;-77
2021/12/28 17:43:11;;;;;;;14.50;4.40;;;;;;;7.99;100.00;99109.09;5287182;28;20406;-74
2021/12/28 17:45:43;;;;;;;15.97;4.33;;;;;;;8.03;100.00;99118.31;5290671;28;20488;-75
2021/12/28 17:48:15;;;;;;;9.50;3.63;;;;;;;8.00;100.00;99110.72;5286399;28;20101;-77
2021/12/28 17:50:46;;;;;;;13.67;3.43;;;;;;;7.93;100.00;99120.81;5294880;28;20642;-76
2021/12/28 17:53:18;;;;;;;12.33;3.93;;;;;;;8.05;100.00;99120.78;5302835;28;20024;-77
2021/12/28 17:55:52;;;;;;;12.13;4.20;;;;;;;7.99;100.00;99122.94;5289154;28;20095;-73
2021/12/28 17:58:23;;;;;;;12.52;3.85;;;;;;;8.08;100.00;99144.06;5292349;28;20024;-73
2021/12/28 18:00:55;;;;;;;11.53;4.13;;;;;;;8.03;100.00;99148.78;5289191;28;20038;-77
2021/12/28 18:03:26;;;;;;;16.90;4.03;;;;;;;7.93;100.00;99135.59;5300859;28;20028;-74
2021/12/28 18:05:58;;;;;;;12.50;3.80;;;;;;;8.10;100.00;99165.59;5297814;28;20016;-72
2021/12/28 18:08:31;;;;;;;11.13;3.57;;;;;;;8.17;100.00;99172.00;5291125;28;20479;-72
2021/12/28 18:11:03;;;;;;;15.33;3.63;;;;;;;8.07;100.00;99178.88;5292572;28;20656;-74
2021/12/28 18:13:34;;;;;;;10.57;3.07;;;;;;;8.10;100.00;99176.03;5281695;28;20036;-76
2021/12/28 18:16:05;;;;;;;16.53;2.90;;;;;;;8.07;100.00;99177.09;5298196;28;20039;-75
2021/12/28 18:18:37;;;;;;;11.77;4.17;;;;;;;8.05;100.00;99185.97;5289800;28;20028;-75
2021/12/28 18:21:08;;;;;;;13.90;3.80;;;;;;;8.07;100.00;99194.53;5293623;28;20511;-71
2021/12/28 18:23:41;;;;;;;17.77;4.27;;;;;;;7.95;100.00;99186.69;5299382;28;20044;-73
2021/12/28 18:26:13;;;;;;;10.73;4.27;;;;;;;7.97;100.00;99205.66;5293177;28;20061;-70
2021/12/28 18:28:45;;;;;;;14.03;4.40;;;;;;;8.00;100.00;99207.19;5292508;28;20028;-73
2021/12/28 18:31:16;;;;;;;11.73;3.80;;;;;;;8.09;100.00;99216.09;5303436;28;20027;-81
2021/12/28 18:33:48;;;;;;;10.50;3.73;;;;;;;8.05;100.00;99223.31;5289876;28;20105;-77
2021/12/28 18:36:19;;;;;;;12.97;4.73;;;;;;;8.15;100.00;99227.84;5291301;28;20038;-79
2021/12/28 18:38:50;;;;;;;10.30;4.10;;;;;;;8.16;100.00;99232.09;5282243;28;20114;-77
2021/12/28 18:41:21;;;;;;;8.47;3.97;;;;;;;8.11;100.00;99243.72;5288287;28;20055;-76
2021/12/28 18:43:59;;;;;;;9.33;3.77;;;;;;;8.03;100.00;99234.81;5284217;28;20042;-77
2021/12/28 18:46:30;;;;;;;9.70;4.03;;;;;;;8.08;100.00;99253.56;5286144;28;20068;-75
2021/12/28 18:49:04;;;;;;;8.90;3.73;;;;;;;8.09;100.00;99260.44;5286972;28;20032;-85
2021/12/28 18:51:36;;;;;;;13.57;5.03;;;;;;;8.03;100.00;99256.50;5288849;28;20099;-83
2021/12/28 18:54:10;;;;;;;14.10;4.57;;;;;;;8.10;100.00;99275.94;5301803;28;20192;-75
2021/12/28 18:56:42;;;;;;;10.63;5.00;;;;;;;8.09;100.00;99283.91;5289266;28;20020;-70
2021/12/28 18:59:15;;;;;;;14.60;5.10;;;;;;;8.09;100.00;99286.50;5293729;28;20118;-77
2021/12/28 19:01:48;;;;;;;20.23;5.90;;;;;;;8.11;100.00;99287.22;5292350;28;20546;-87
2021/12/28 19:04:19;;;;;;;12.43;5.50;;;;;;;8.06;100.00;99282.38;5290676;28;20028;-77
2021/12/28 19:06:54;;;;;;;15.00;5.07;;;;;;;8.13;100.00;99308.81;5287527;28;20078;-82
2021/12/28 19:09:26;;;;;;;8.83;5.00;;;;;;;8.10;100.00;99309.84;5293549;28;20034;-81
2021/12/28 19:11:58;;;;;;;9.30;4.97;;;;;;;8.09;100.00;99312.56;5296626;28;20028;-77
2021/12/28 19:14:31;;;;;;;13.03;4.50;;;;;;;8.08;100.00;99310.94;5290946;28;20103;-74
2021/12/28 19:17:02;;;;;;;11.53;4.17;;;;;;;8.04;100.00;99301.66;5294122;28;20069;-78
2021/12/28 19:19:35;;;;;;;9.07;4.00;;;;;;;8.17;100.00;99331.09;5292692;28;20024;-75
2021/12/28 19:22:06;;;;;;;6.53;3.93;;;;;;;8.16;100.00;99334.66;5294884;28;20047;-73
2021/12/28 19:24:38;;;;;;;11.03;4.70;;;;;;;8.18;100.00;99345.81;5291295;28;20441;-71
2021/12/28 19:27:09;;;;;;;14.23;4.93;;;;;;;8.18;100.00;99345.81;5289323;28;20056;-77
2021/12/28 19:29:40;;;;;;;10.93;4.40;;;;;;;8.14;100.00;99370.44;5282319;28;20079;-71
2021/12/28 19:32:12;;;;;;;11.60;4.57;;;;;;;8.16;100.00;99370.31;5290719;28;20414;-72
2021/12/28 19:34:44;;;;;;;18.10;6.60;;;;;;;8.19;100.00;99370.94;5284486;28;20491;-77
2021/12/28 19:37:16;;;;;;;12.23;5.23;;;;;;;8.24;100.00;99383.63;5284775;28;20028;-75
2021/12/28 19:39:48;;;;;;;13.27;5.80;;;;;;;8.21;100.00;99379.47;5284994;28;20482;-75
2021/12/28 19:42:19;;;;;;;8.97;5.00;;;;;;;8.28;100.00;99394.66;5296901;28;20024;-78
2021/12/28 19:44:50;;;;;;;12.43;5.23;;;;;;;8.22;100.00;99407.22;5287634;28;20024;-78
2021/12/28 19:47:23;;;;;;;10.00;5.00;;;;;;;8.33;100.00;99421.25;5291410;28;20020;-74
2021/12/28 19:49:55;;;;;;;15.97;5.47;;;;;;;8.25;100.00;99426.19;5286908;28;20450;-74
2021/12/28 19:52:26;;;;;;;15.13;5.73;;;;;;;8.20;100.00;99424.75;5283288;28;20048;-74
2021/12/28 19:54:58;;;;;;;12.17;4.40;;;;;;;8.28;100.00;99442.47;5291258;28;20039;-75
2021/12/28 19:57:32;;;;;;;16.20;5.60;;;;;;;8.33;100.00;99465.59;5281746;28;20036;-77
2021/12/28 20:00:07;;;;;;;10.15;3.78;;;;;;;8.38;100.00;99458.25;5317439;27;20130;-84
2021/12/28 20:02:39;;;;;;;8.23;3.50;;;;;;;8.29;100.00;99459.75;5280711;28;20063;-78
2021/12/28 20:05:11;;;;;;;7.73;3.70;;;;;;;8.28;100.00;99462.47;5281603;28;20020;-76
2021/12/28 20:07:43;;;;;;;6.90;3.43;;;;;;;8.33;100.00;99496.91;5278051;28;20028;-77
2021/12/28 20:10:18;;;;;;;8.73;4.20;;;;;;;8.38;100.00;99493.97;5279751;28;20039;-76
2021/12/28 20:12:51;;;;;;;5.80;3.07;;;;;;;8.36;100.00;99496.66;5280550;28;20032;-87
2021/12/28 20:15:23;;;;;;;6.57;4.00;;;;;;;8.33;100.00;99502.13;5286878;28;20028;-74
2021/12/28 20:17:56;;;;;;;10.03;3.97;;;;;;;8.31;100.00;99509.22;5285383;28;20038;-79
2021/12/28 20:20:29;;;;;;;9.23;3.57;;;;;;;8.28;100.00;99514.66;5279931;28;20028;-82
2021/12/28 20:23:01;;;;;;;6.73;3.40;;;;;;;8.31;100.00;99522.25;5292674;28;20044;-74
2021/12/28 20:25:32;;;;;;;7.67;4.80;;;;;;;8.35;100.00;99515.88;5279630;28;20242;-81
2021/12/28 20:28:05;;;;;;;8.37;4.63;;;;;;;8.37;100.00;99521.81;5278177;28;20036;-79
2021/12/28 20:30:37;;;;;;;7.97;5.43;;;;;;;8.40;100.00;99523.38;5296817;27;20097;-79
2021/12/28 20:33:08;;;;;;;7.23;5.67;;;;;;;8.43;100.00;99534.41;5286353;28;20512;-79
2021/12/28 20:35:40;;;;;;;8.07;5.83;;;;;;;8.40;100.00;99534.66;5282253;28;20110;-80
2021/12/28 20:38:13;;;;;;;11.13;7.10;;;;;;;8.40;100.00;99545.09;5282571;28;20055;-85
2021/12/28 20:40:45;;;;;;;11.27;7.37;;;;;;;8.42;100.00;99558.84;5283008;28;20036;-76
2021/12/28 20:43:17;;;;;;;11.27;6.87;;;;;;;8.44;100.00;99556.13;5281110;28;20039;-75
2021/12/28 20:45:49;;;;;;;12.17;6.93;;;;;;;8.33;100.00;99556.91;5279244;28;21814;-81
2021/12/28 20:48:21;;;;;;;12.63;7.70;;;;;;;8.39;100.00;99566.06;5291365;28;20016;-74
2021/12/28 20:50:56;;;;;;;9.90;6.70;;;;;;;8.40;100.00;99575.53;5299875;28;20087;-76
2021/12/28 20:53:27;;;;;;;;;;;;;;;8.63;100.00;99597.44;5301373;28;20097;-72
2021/12/28 20:55:59;;;;;;;10.97;5.53;;;;;;;8.43;100.00;99591.81;5293414;28;19912;-74
2021/12/28 20:58:30;;;;;;;10.57;5.37;;;;;;;8.43;100.00;99597.03;5290241;28;20027;-75
2021/12/28 21:01:02;;;;;;;8.80;5.20;;;;;;;8.32;100.00;99581.31;5285037;28;20105;-74
2021/12/28 21:03:34;;;;;;;12.27;6.30;;;;;;;8.45;100.00;99616.03;5289854;28;20031;-71
2021/12/28 21:06:06;;;;;;;13.83;5.90;;;;;;;8.34;100.00;99588.09;5286453;28;20517;-75
2021/12/28 21:08:38;;;;;;;7.93;4.70;;;;;;;8.39;100.00;99624.31;5290147;28;20035;-72
2021/12/28 21:11:09;;;;;;;6.57;4.60;;;;;;;8.41;100.00;99632.03;5279067;28;20135;-75
2021/12/28 21:13:41;;;;;;;10.67;5.47;;;;;;;8.43;100.00;99641.41;5289468;28;20090;-72
2021/12/28 21:16:12;;;;;;;10.97;5.03;;;;;;;8.40;100.00;99649.44;5298342;28;20470;-75
2021/12/28 21:18:43;;;;;;;9.30;5.13;;;;;;;8.38;100.00;99660.94;5286290;28;20024;-78
2021/12/28 21:21:15;;;;;;;8.67;4.30;;;;;;;8.39;100.00;99662.59;5288396;28;20039;-72
2021/12/28 21:23:48;;;;;;;6.50;3.97;;;;;;;8.34;100.00;99662.94;5292566;28;20023;-72
2021/12/28 21:26:22;;;;;;;6.97;4.03;;;;;;;8.39;100.00;99673.03;5289635;28;20467;-75
2021/12/28 21:28:53;;;;;;;6.47;3.50;;;;;;;8.40;100.00;99691.19;5282888;28;20161;-75
2021/12/28 21:31:25;;;;;;;6.67;3.20;;;;;;;8.42;100.00;99691.09;5286618;28;20076;-73
2021/12/28 21:33:56;;;;;;;7.63;3.67;;;;;;;8.42;100.00;99704.13;5284654;28;20028;-79
2021/12/28 21:36:30;;;;;;;7.33;3.57;;;;;;;8.36;100.00;99700.16;5292015;28;20028;-74
2021/12/28 21:39:01;;;;;;;9.02;4.63;;;;;;;8.36;100.00;99702.78;5277838;28;20055;-74
2021/12/28 21:41:32;;;;;;;7.67;3.60;;;;;;;8.30;100.00;99711.88;5282177;28;20517;-74